sensor_id;sensor_type;location;lat;lon;timestamp;pressure;altitude;pressure_sealevel;temperature;humidity
20037;BME280;10179;42.640;23.312;2023-01-25T00:01:34;94679.09;;;5.55;60.55
20037;BME280;10179;42.640;23.312;2023-01-25T00:03:59;94719.72;;;5.80;60.83
20037;BME280;10179;42.640;23.312;2023-01-25T00:06:25;94756.47;;;6.02;61.17
20037;BME280;10179;42.640;23.312;2023-01-25T00:08:51;94755.81;;;6.00;60.69
20037;BME280;10179;42.640;23.312;2023-01-25T00:11:16;94737.31;;;5.78;61.04
20037;BME280;10179;42.640;23.312;2023-01-25T00:13:42;94753.22;;;6.00;61.14
20037;BME280;10179;42.640;23.312;2023-01-25T00:16:08;94709.34;;;5.64;60.75
20037;BME280;10179;42.640;23.312;2023-01-25T00:18:33;94746.91;;;5.94;61.04
20037;BME280;10179;42.640;23.312;2023-01-25T00:20:59;94723.63;;;5.76;60.81
20037;BME280;10179;42.640;23.312;2023-01-25T00:23:25;94752.75;;;5.88;60.76
20037;BME280;10179;42.640;23.312;2023-01-25T00:25:56;94758.78;;;5.88;60.79
20037;BME280;10179;42.640;23.312;2023-01-25T00:28:22;94727.91;;;5.69;60.91
20037;BME280;10179;42.640;23.312;2023-01-25T00:30:47;94819.09;;;5.77;60.43
20037;BME280;10179;42.640;23.312;2023-01-25T00:35:43;94750.38;;;5.70;60.95
20037;BME280;10179;42.640;23.312;2023-01-25T00:38:29;94751.66;;;5.74;61.08
20037;BME280;10179;42.640;23.312;2023-01-25T00:40:57;94747.44;;;5.65;60.85
20037;BME280;10179;42.640;23.312;2023-01-25T00:43:23;94749.09;;;5.66;61.05
20037;BME280;10179;42.640;23.312;2023-01-25T00:45:48;94726.78;;;5.55;61.17
20037;BME280;10179;42.640;23.312;2023-01-25T00:48:14;94726.00;;;5.55;61.19
20037;BME280;10179;42.640;23.312;2023-01-25T00:50:39;94749.38;;;5.71;61.08
20037;BME280;10179;42.640;23.312;2023-01-25T00:53:04;94763.22;;;5.71;61.25
20037;BME280;10179;42.640;23.312;2023-01-25T00:55:30;94758.00;;;5.71;61.05
20037;BME280;10179;42.640;23.312;2023-01-25T00:57:55;94745.78;;;5.72;61.39
20037;BME280;10179;42.640;23.312;2023-01-25T01:00:21;94751.66;;;5.74;61.48
20037;BME280;10179;42.640;23.312;2023-01-25T01:02:46;94751.66;;;5.74;61.22
20037;BME280;10179;42.640;23.312;2023-01-25T01:05:12;94699.78;;;5.40;61.30
20037;BME280;10179;42.640;23.312;2023-01-25T01:07:37;94673.00;;;5.23;60.81
20037;BME280;10179;42.640;23.312;2023-01-25T01:10:03;94736.22;;;5.56;60.84
20037;BME280;10179;42.640;23.312;2023-01-25T01:12:28;94726.66;;;5.48;61.02
20037;BME280;10179;42.640;23.312;2023-01-25T01:14:54;94760.16;;;5.60;60.85
20037;BME280;10179;42.640;23.312;2023-01-25T01:17:20;94779.38;;;5.59;60.61
20037;BME280;10179;42.640;23.312;2023-01-25T01:19:46;94747.31;;;5.58;60.65
20037;BME280;10179;42.640;23.312;2023-01-25T01:22:11;94754.28;;;5.58;61.15
20037;BME280;10179;42.640;23.312;2023-01-25T01:24:37;94749.75;;;5.60;61.34
20037;BME280;10179;42.640;23.312;2023-01-25T01:27:02;94733.81;;;5.55;61.16
20037;BME280;10179;42.640;23.312;2023-01-25T01:29:27;94741.75;;;5.61;61.27
20037;BME280;10179;42.640;23.312;2023-01-25T01:31:53;94652.19;;;5.07;61.45
20037;BME280;10179;42.640;23.312;2023-01-25T01:34:18;94694.44;;;5.41;61.38
20037;BME280;10179;42.640;23.312;2023-01-25T01:36:44;94733.78;;;5.63;61.06
20037;BME280;10179;42.640;23.312;2023-01-25T01:39:10;94737.38;;;5.62;60.80
20037;BME280;10179;42.640;23.312;2023-01-25T01:41:36;94727.28;;;5.59;60.99
20037;BME280;10179;42.640;23.312;2023-01-25T01:44:03;94744.84;;;5.57;61.05
20037;BME280;10179;42.640;23.312;2023-01-25T01:49:18;94707.75;;;5.46;60.97
20037;BME280;10179;42.640;23.312;2023-01-25T01:51:57;94726.31;;;5.52;61.06
20037;BME280;10179;42.640;23.312;2023-01-25T01:57:07;94672.34;;;5.21;61.05
20037;BME280;10179;42.640;23.312;2023-01-25T01:59:43;94716.38;;;5.47;61.03
20037;BME280;10179;42.640;23.312;2023-01-25T02:02:09;94623.63;;;4.58;60.80
20037;BME280;10179;42.640;23.312;2023-01-25T02:04:34;94725.69;;;5.41;60.97
20037;BME280;10179;42.640;23.312;2023-01-25T02:07:06;94698.53;;;5.28;61.04
20037;BME280;10179;42.640;23.312;2023-01-25T02:09:35;94701.47;;;5.24;60.60
20037;BME280;10179;42.640;23.312;2023-01-25T02:12:02;94733.16;;;5.36;60.67
20037;BME280;10179;42.640;23.312;2023-01-25T02:14:29;94631.41;;;4.66;60.49
20037;BME280;10179;42.640;23.312;2023-01-25T02:16:55;94729.94;;;5.34;60.65
20037;BME280;10179;42.640;23.312;2023-01-25T02:19:33;94140.03;;;1.70;60.67
20037;BME280;10179;42.640;23.312;2023-01-25T02:22:07;94729.59;;;5.37;60.66
20037;BME280;10179;42.640;23.312;2023-01-25T02:24:38;94713.00;;;5.22;60.61
20037;BME280;10179;42.640;23.312;2023-01-25T02:27:07;94681.16;;;4.95;60.61
20037;BME280;10179;42.640;23.312;2023-01-25T02:29:32;94648.00;;;4.73;60.52
20037;BME280;10179;42.640;23.312;2023-01-25T02:32:01;94671.72;;;4.94;60.66
20037;BME280;10179;42.640;23.312;2023-01-25T02:34:27;94730.59;;;5.28;60.49
20037;BME280;10179;42.640;23.312;2023-01-25T02:36:53;94740.69;;;5.31;60.71
20037;BME280;10179;42.640;23.312;2023-01-25T02:39:18;94597.13;;;4.54;60.42
20037;BME280;10179;42.640;23.312;2023-01-25T02:41:45;94721.13;;;5.35;60.23
20037;BME280;10179;42.640;23.312;2023-01-25T02:44:23;94697.72;;;5.27;60.17
20037;BME280;10179;42.640;23.312;2023-01-25T02:46:49;94716.72;;;5.36;60.12
20037;BME280;10179;42.640;23.312;2023-01-25T02:49:15;94713.97;;;5.37;60.24
20037;BME280;10179;42.640;23.312;2023-01-25T02:51:46;94709.41;;;5.39;60.25
20037;BME280;10179;42.640;23.312;2023-01-25T02:54:13;94698.03;;;5.24;60.19
20037;BME280;10179;42.640;23.312;2023-01-25T02:56:39;94721.78;;;5.37;59.93
20037;BME280;10179;42.640;23.312;2023-01-25T02:59:06;94721.94;;;5.36;60.05
20037;BME280;10179;42.640;23.312;2023-01-25T03:01:36;94694.81;;;5.14;59.87
20037;BME280;10179;42.640;23.312;2023-01-25T03:04:02;94708.13;;;5.27;59.97
20037;BME280;10179;42.640;23.312;2023-01-25T03:06:28;94726.00;;;5.38;59.67
20037;BME280;10179;42.640;23.312;2023-01-25T03:08:53;94720.81;;;5.38;59.95
20037;BME280;10179;42.640;23.312;2023-01-25T03:11:19;94726.81;;;5.39;59.83
20037;BME280;10179;42.640;23.312;2023-01-25T03:13:44;94723.75;;;5.35;59.64
20037;BME280;10179;42.640;23.312;2023-01-25T03:16:11;94718.84;;;5.32;59.73
20037;BME280;10179;42.640;23.312;2023-01-25T03:18:37;94713.66;;;5.32;59.79
20037;BME280;10179;42.640;23.312;2023-01-25T03:21:15;94719.50;;;5.34;59.84
20037;BME280;10179;42.640;23.312;2023-01-25T03:23:41;94614.34;;;4.71;59.75
20037;BME280;10179;42.640;23.312;2023-01-25T03:26:20;94701.75;;;5.30;60.18
20037;BME280;10179;42.640;23.312;2023-01-25T03:28:46;94709.91;;;5.35;59.84
20037;BME280;10179;42.640;23.312;2023-01-25T03:31:13;94721.78;;;5.37;59.97
20037;BME280;10179;42.640;23.312;2023-01-25T03:33:40;94709.56;;;5.38;59.86
20037;BME280;10179;42.640;23.312;2023-01-25T03:36:06;94713.63;;;5.40;59.96
20037;BME280;10179;42.640;23.312;2023-01-25T03:38:32;94655.13;;;5.03;59.90
20037;BME280;10179;42.640;23.312;2023-01-25T03:40:58;94722.75;;;5.44;59.93
20037;BME280;10179;42.640;23.312;2023-01-25T03:43:24;94721.75;;;5.45;59.72
20037;BME280;10179;42.640;23.312;2023-01-25T03:45:57;94717.50;;;5.53;59.92
20037;BME280;10179;42.640;23.312;2023-01-25T03:48:24;94710.22;;;5.48;59.62
20037;BME280;10179;42.640;23.312;2023-01-25T03:50:51;94712.63;;;5.49;59.44
20037;BME280;10179;42.640;23.312;2023-01-25T03:53:18;94724.66;;;5.50;59.59
20037;BME280;10179;42.640;23.312;2023-01-25T03:56:02;94664.25;;;4.99;59.48
20037;BME280;10179;42.640;23.312;2023-01-25T03:58:29;94705.47;;;5.52;59.69
20037;BME280;10179;42.640;23.312;2023-01-25T04:00:57;94715.91;;;5.52;59.22
20037;BME280;10179;42.640;23.312;2023-01-25T04:03:23;94700.75;;;5.47;59.34
20037;BME280;10179;42.640;23.312;2023-01-25T04:05:49;94644.19;;;5.08;59.25
20037;BME280;10179;42.640;23.312;2023-01-25T04:08:15;94704.34;;;5.46;59.43
20037;BME280;10179;42.640;23.312;2023-01-25T04:10:41;94701.91;;;5.44;59.13
20037;BME280;10179;42.640;23.312;2023-01-25T04:13:06;94688.91;;;5.28;59.32
20037;BME280;10179;42.640;23.312;2023-01-25T04:15:31;94694.44;;;5.41;59.62
20037;BME280;10179;42.640;23.312;2023-01-25T04:17:57;94695.06;;;5.43;59.50
20037;BME280;10179;42.640;23.312;2023-01-25T04:20:22;94462.13;;;4.03;59.07
20037;BME280;10179;42.640;23.312;2023-01-25T04:22:48;94714.94;;;5.44;59.54
20037;BME280;10179;42.640;23.312;2023-01-25T04:25:13;94689.03;;;5.43;59.11
20037;BME280;10179;42.640;23.312;2023-01-25T04:27:38;94691.16;;;5.39;59.24
20037;BME280;10179;42.640;23.312;2023-01-25T04:30:04;94670.38;;;5.23;59.20
20037;BME280;10179;42.640;23.312;2023-01-25T04:32:30;94700.44;;;5.42;59.05
20037;BME280;10179;42.640;23.312;2023-01-25T04:34:56;94683.72;;;5.28;59.11
20037;BME280;10179;42.640;23.312;2023-01-25T04:37:21;94508.59;;;4.15;59.30
20037;BME280;10179;42.640;23.312;2023-01-25T04:39:47;94714.94;;;5.44;59.24
20037;BME280;10179;42.640;23.312;2023-01-25T04:42:12;94609.28;;;4.78;59.10
20037;BME280;10179;42.640;23.312;2023-01-25T04:44:38;94720.47;;;5.41;59.05
20037;BME280;10179;42.640;23.312;2023-01-25T04:47:04;94686.00;;;5.23;59.02
20037;BME280;10179;42.640;23.312;2023-01-25T04:49:29;94653.38;;;4.71;59.10
20037;BME280;10179;42.640;23.312;2023-01-25T04:51:55;94718.84;;;5.40;59.13
20037;BME280;10179;42.640;23.312;2023-01-25T04:54:20;94690.53;;;5.29;59.08
20037;BME280;10179;42.640;23.312;2023-01-25T04:56:45;94697.88;;;5.34;58.91
20037;BME280;10179;42.640;23.312;2023-01-25T04:59:11;94708.09;;;5.43;58.84
20037;BME280;10179;42.640;23.312;2023-01-25T05:01:36;94711.69;;;5.42;58.69
20037;BME280;10179;42.640;23.312;2023-01-25T05:04:02;94639.81;;;5.00;58.36
20037;BME280;10179;42.640;23.312;2023-01-25T05:06:27;94636.59;;;4.98;58.34
20037;BME280;10179;42.640;23.312;2023-01-25T05:08:52;94705.50;;;5.35;58.55
20037;BME280;10179;42.640;23.312;2023-01-25T05:11:18;94627.50;;;4.86;58.40
20037;BME280;10179;42.640;23.312;2023-01-25T05:13:43;94668.44;;;5.09;58.54
20037;BME280;10179;42.640;23.312;2023-01-25T05:16:09;94701.59;;;5.39;58.70
20037;BME280;10179;42.640;23.312;2023-01-25T05:18:34;94701.59;;;5.39;58.29
20037;BME280;10179;42.640;23.312;2023-01-25T05:20:59;94697.19;;;5.40;58.55
20037;BME280;10179;42.640;23.312;2023-01-25T05:23:25;94652.50;;;5.12;58.27
20037;BME280;10179;42.640;23.312;2023-01-25T05:25:50;94683.06;;;5.26;58.48
20037;BME280;10179;42.640;23.312;2023-01-25T05:28:34;94708.78;;;5.37;58.23
20037;BME280;10179;42.640;23.312;2023-01-25T05:31:03;94660.00;;;4.90;58.56
20037;BME280;10179;42.640;23.312;2023-01-25T05:33:28;94708.13;;;5.35;58.04
20037;BME280;10179;42.640;23.312;2023-01-25T05:35:54;94435.69;;;3.59;57.93
20037;BME280;10179;42.640;23.312;2023-01-25T05:38:20;94710.72;;;5.35;58.18
20037;BME280;10179;42.640;23.312;2023-01-25T05:40:57;94672.66;;;5.18;58.30
20037;BME280;10179;42.640;23.312;2023-01-25T05:43:22;94717.25;;;5.31;57.87
20037;BME280;10179;42.640;23.312;2023-01-25T05:45:51;94704.03;;;5.41;57.95
20037;BME280;10179;42.640;23.312;2023-01-25T05:48:16;94582.00;;;4.58;57.80
20037;BME280;10179;42.640;23.312;2023-01-25T05:50:42;94622.97;;;4.72;57.45
20037;BME280;10179;42.640;23.312;2023-01-25T05:53:07;94658.38;;;4.97;57.54
20037;BME280;10179;42.640;23.312;2023-01-25T05:55:34;94718.72;;;5.34;57.44
20037;BME280;10179;42.640;23.312;2023-01-25T05:58:00;94678.22;;;5.07;57.74
20037;BME280;10179;42.640;23.312;2023-01-25T06:00:26;94640.19;;;4.81;57.57
20037;BME280;10179;42.640;23.312;2023-01-25T06:02:51;94714.97;;;5.28;57.51
20037;BME280;10179;42.640;23.312;2023-01-25T06:05:17;94734.19;;;5.27;57.57
20037;BME280;10179;42.640;23.312;2023-01-25T06:07:42;94577.13;;;4.38;57.90
20037;BME280;10179;42.640;23.312;2023-01-25T06:10:08;94719.69;;;5.24;57.70
20037;BME280;10179;42.640;23.312;2023-01-25T06:12:34;94720.50;;;5.25;57.68
20037;BME280;10179;42.640;23.312;2023-01-25T06:15:01;94728.97;;;5.27;57.72
20037;BME280;10179;42.640;23.312;2023-01-25T06:17:26;94720.16;;;5.28;57.69
20037;BME280;10179;42.640;23.312;2023-01-25T06:19:51;94726.50;;;5.25;57.47
20037;BME280;10179;42.640;23.312;2023-01-25T06:22:17;94698.38;;;5.05;57.45
20037;BME280;10179;42.640;23.312;2023-01-25T06:24:44;94731.91;;;5.24;57.70
20037;BME280;10179;42.640;23.312;2023-01-25T06:27:09;94734.19;;;5.27;57.79
20037;BME280;10179;42.640;23.312;2023-01-25T06:29:36;94728.66;;;5.30;57.62
20037;BME280;10179;42.640;23.312;2023-01-25T06:32:02;94728.28;;;5.33;57.61
20037;BME280;10179;42.640;23.312;2023-01-25T06:34:27;94666.84;;;4.91;57.85
20037;BME280;10179;42.640;23.312;2023-01-25T06:36:53;94613.88;;;4.68;57.55
20037;BME280;10179;42.640;23.312;2023-01-25T06:39:18;94731.22;;;5.38;57.47
20037;BME280;10179;42.640;23.312;2023-01-25T06:41:43;94604.75;;;4.64;57.18
20037;BME280;10179;42.640;23.312;2023-01-25T06:44:09;94603.44;;;4.60;57.31
20037;BME280;10179;42.640;23.312;2023-01-25T06:46:34;94721.63;;;5.39;57.21
20037;BME280;10179;42.640;23.312;2023-01-25T06:49:00;94729.25;;;5.40;57.19
20037;BME280;10179;42.640;23.312;2023-01-25T06:51:25;94746.84;;;5.38;57.10
20037;BME280;10179;42.640;23.312;2023-01-25T06:53:52;94701.47;;;5.16;57.14
20037;BME280;10179;42.640;23.312;2023-01-25T06:56:19;94723.75;;;5.35;57.26
20037;BME280;10179;42.640;23.312;2023-01-25T06:58:46;94718.84;;;5.32;56.92
20037;BME280;10179;42.640;23.312;2023-01-25T07:01:16;94721.63;;;5.31;57.24
20037;BME280;10179;42.640;23.312;2023-01-25T07:03:47;94596.31;;;4.53;57.15
20037;BME280;10179;42.640;23.312;2023-01-25T07:06:12;94701.00;;;5.13;57.07
20037;BME280;10179;42.640;23.312;2023-01-25T07:08:38;94619.38;;;4.65;57.13
20037;BME280;10179;42.640;23.312;2023-01-25T07:11:05;94714.31;;;5.26;57.13
20037;BME280;10179;42.640;23.312;2023-01-25T07:13:32;94719.50;;;5.26;57.15
20037;BME280;10179;42.640;23.312;2023-01-25T07:16:03;94697.25;;;5.07;57.10
20037;BME280;10179;42.640;23.312;2023-01-25T07:18:30;94673.66;;;4.84;56.95
20037;BME280;10179;42.640;23.312;2023-01-25T07:21:11;94600.22;;;4.49;56.95
20037;BME280;10179;42.640;23.312;2023-01-25T07:23:37;94724.56;;;5.19;56.88
20037;BME280;10179;42.640;23.312;2023-01-25T07:26:04;94744.75;;;5.17;56.88
20037;BME280;10179;42.640;23.312;2023-01-25T07:28:31;94731.88;;;5.16;57.17
20037;BME280;10179;42.640;23.312;2023-01-25T07:31:03;94735.81;;;5.20;57.13
20037;BME280;10179;42.640;23.312;2023-01-25T07:33:30;94728.34;;;5.17;56.97
20037;BME280;10179;42.640;23.312;2023-01-25T07:35:59;94728.63;;;5.22;57.26
20037;BME280;10179;42.640;23.312;2023-01-25T07:38:25;94336.50;;;2.74;57.18
20037;BME280;10179;42.640;23.312;2023-01-25T07:40:51;94696.78;;;4.87;57.46
20037;BME280;10179;42.640;23.312;2023-01-25T07:43:17;94739.06;;;5.22;57.53
20037;BME280;10179;42.640;23.312;2023-01-25T07:45:43;94741.66;;;5.22;57.17
20037;BME280;10179;42.640;23.312;2023-01-25T07:48:13;94698.72;;;5.01;57.08
20037;BME280;10179;42.640;23.312;2023-01-25T07:50:38;94734.03;;;5.20;57.55
20037;BME280;10179;42.640;23.312;2023-01-25T07:53:06;94722.16;;;5.10;57.29
20037;BME280;10179;42.640;23.312;2023-01-25T07:55:31;94684.75;;;4.78;57.21
20037;BME280;10179;42.640;23.312;2023-01-25T07:57:57;94739.72;;;5.24;57.22
20037;BME280;10179;42.640;23.312;2023-01-25T08:00:22;94755.34;;;5.24;57.51
20037;BME280;10179;42.640;23.312;2023-01-25T08:02:51;94640.19;;;4.65;57.37
20037;BME280;10179;42.640;23.312;2023-01-25T08:05:17;94708.16;;;5.02;57.03
20037;BME280;10179;42.640;23.312;2023-01-25T08:07:43;94635.66;;;4.59;57.31
20037;BME280;10179;42.640;23.312;2023-01-25T08:10:09;94742.47;;;5.22;57.39
20037;BME280;10179;42.640;23.312;2023-01-25T08:12:34;94741.34;;;5.25;57.48
20037;BME280;10179;42.640;23.312;2023-01-25T08:15:00;94730.59;;;5.28;57.64
20037;BME280;10179;42.640;23.312;2023-01-25T08:17:25;94701.31;;;5.10;57.57
20037;BME280;10179;42.640;23.312;2023-01-25T08:19:59;94727.31;;;5.26;57.87
20037;BME280;10179;42.640;23.312;2023-01-25T08:22:26;94731.88;;;5.32;57.59
20037;BME280;10179;42.640;23.312;2023-01-25T08:24:52;94676.28;;;5.00;57.81
20037;BME280;10179;42.640;23.312;2023-01-25T08:27:18;94602.97;;;4.56;57.65
20037;BME280;10179;42.640;23.312;2023-01-25T08:29:44;94691.88;;;5.17;57.67
20037;BME280;10179;42.640;23.312;2023-01-25T08:32:09;94674.97;;;5.05;57.89
20037;BME280;10179;42.640;23.312;2023-01-25T08:34:35;94711.03;;;5.32;57.85
20037;BME280;10179;42.640;23.312;2023-01-25T08:37:00;94692.50;;;5.27;57.87
20037;BME280;10179;42.640;23.312;2023-01-25T08:39:26;94651.19;;;5.08;57.94
20037;BME280;10179;42.640;23.312;2023-01-25T08:41:51;94573.88;;;4.52;57.94
20037;BME280;10179;42.640;23.312;2023-01-25T08:44:17;94639.00;;;5.00;57.78
20037;BME280;10179;42.640;23.312;2023-01-25T08:46:46;94715.38;;;5.56;57.85
20037;BME280;10179;42.640;23.312;2023-01-25T08:49:12;94661.59;;;5.24;57.90
20037;BME280;10179;42.640;23.312;2023-01-25T08:51:37;94412.31;;;3.67;57.83
20037;BME280;10179;42.640;23.312;2023-01-25T08:54:05;94699.59;;;5.49;57.79
20037;BME280;10179;42.640;23.312;2023-01-25T08:56:30;94713.44;;;5.58;57.82
20037;BME280;10179;42.640;23.312;2023-01-25T08:58:56;94724.66;;;5.59;57.83
20037;BME280;10179;42.640;23.312;2023-01-25T09:01:21;94722.06;;;5.59;57.81
20037;BME280;10179;42.640;23.312;2023-01-25T09:03:48;94723.69;;;5.60;58.10
20037;BME280;10179;42.640;23.312;2023-01-25T09:06:15;94732.97;;;5.62;58.21
20037;BME280;10179;42.640;23.312;2023-01-25T09:08:41;94707.09;;;5.53;57.82
20037;BME280;10179;42.640;23.312;2023-01-25T09:11:08;94718.75;;;5.73;58.20
20037;BME280;10179;42.640;23.312;2023-01-25T09:13:34;94662.84;;;5.36;57.96
20037;BME280;10179;42.640;23.312;2023-01-25T09:16:07;94687.19;;;5.60;58.25
20037;BME280;10179;42.640;23.312;2023-01-25T09:18:38;94711.09;;;5.80;58.30
20037;BME280;10179;42.640;23.312;2023-01-25T09:21:15;94702.75;;;5.84;58.18
20037;BME280;10179;42.640;23.312;2023-01-25T09:23:41;94648.22;;;5.35;58.13
20037;BME280;10179;42.640;23.312;2023-01-25T09:26:10;94707.66;;;5.79;58.26
20037;BME280;10179;42.640;23.312;2023-01-25T09:28:36;94673.84;;;5.63;58.21
20037;BME280;10179;42.640;23.312;2023-01-25T09:31:03;94680.66;;;5.64;58.00
20037;BME280;10179;42.640;23.312;2023-01-25T09:33:32;94689.91;;;5.74;58.16
20037;BME280;10179;42.640;23.312;2023-01-25T09:35:58;94687.31;;;5.74;58.29
20037;BME280;10179;42.640;23.312;2023-01-25T09:38:24;94674.13;;;5.76;58.42
20037;BME280;10179;42.640;23.312;2023-01-25T09:47:16;94672.13;;;5.86;58.56
20037;BME280;10179;42.640;23.312;2023-01-25T09:49:30;94664.31;;;5.78;58.48
20037;BME280;10179;42.640;23.312;2023-01-25T09:54:52;94659.09;;;5.78;58.60
20037;BME280;10179;42.640;23.312;2023-01-25T09:57:31;94659.56;;;5.82;58.82
20037;BME280;10179;42.640;23.312;2023-01-25T10:00:00;94654.38;;;5.82;58.83
20037;BME280;10179;42.640;23.312;2023-01-25T10:05:11;94641.13;;;5.91;59.05
20037;BME280;10179;42.640;23.312;2023-01-25T10:08:10;94551.78;;;5.43;58.64
20037;BME280;10179;42.640;23.312;2023-01-25T10:10:38;94593.88;;;5.63;58.76
20037;BME280;10179;42.640;23.312;2023-01-25T10:13:09;94523.84;;;5.29;58.81
20037;BME280;10179;42.640;23.312;2023-01-25T10:15:39;94558.59;;;5.53;58.85
20037;BME280;10179;42.640;23.312;2023-01-25T10:20:37;94620.59;;;5.96;58.97
20037;BME280;10179;42.640;23.312;2023-01-25T10:23:38;94603.66;;;5.92;58.72
20037;BME280;10179;42.640;23.312;2023-01-25T10:26:25;94611.47;;;6.01;58.79
20037;BME280;10179;42.640;23.312;2023-01-25T10:34:28;94540.59;;;5.66;59.17
20037;BME280;10179;42.640;23.312;2023-01-25T10:37:00;94567.72;;;5.80;58.97
20037;BME280;10179;42.640;23.312;2023-01-25T10:39:27;94604.03;;;6.12;58.90
20037;BME280;10179;42.640;23.312;2023-01-25T10:41:58;94581.09;;;6.08;59.17
20037;BME280;10179;42.640;23.312;2023-01-25T10:44:25;94566.50;;;5.98;58.74
20037;BME280;10179;42.640;23.312;2023-01-25T10:46:58;94571.94;;;6.12;58.99
20037;BME280;10179;42.640;23.312;2023-01-25T10:49:35;94590.50;;;6.32;58.51
20037;BME280;10179;42.640;23.312;2023-01-25T10:52:35;94614.56;;;6.42;58.22
20037;BME280;10179;42.640;23.312;2023-01-25T10:55:14;94570.75;;;6.37;58.90
20037;BME280;10179;42.640;23.312;2023-01-25T10:57:55;94529.41;;;6.11;58.92
20037;BME280;10179;42.640;23.312;2023-01-25T11:00:24;94571.88;;;6.43;58.42
20037;BME280;10179;42.640;23.312;2023-01-25T11:02:52;94580.31;;;6.45;58.35
20037;BME280;10179;42.640;23.312;2023-01-25T11:07:47;94558.94;;;6.50;58.12
20037;BME280;10179;42.640;23.312;2023-01-25T11:10:33;94563.53;;;6.62;57.60
20037;BME280;10179;42.640;23.312;2023-01-25T11:18:29;94522.75;;;6.47;57.35
20037;BME280;10179;42.640;23.312;2023-01-25T11:21:16;94541.03;;;6.61;56.53
20037;BME280;10179;42.640;23.312;2023-01-25T11:26:32;94516.50;;;6.33;56.04
20037;BME280;10179;42.640;23.312;2023-01-25T11:29:24;94540.69;;;6.64;56.37
20037;BME280;10179;42.640;23.312;2023-01-25T11:31:54;94549.66;;;6.62;56.33
20037;BME280;10179;42.640;23.312;2023-01-25T11:34:26;94537.88;;;6.66;56.09
20037;BME280;10179;42.640;23.312;2023-01-25T11:47:46;94520.16;;;6.76;55.14
20037;BME280;10179;42.640;23.312;2023-01-25T11:50:23;94512.88;;;6.72;54.83
20037;BME280;10179;42.640;23.312;2023-01-25T11:55:57;94488.94;;;6.68;54.39
20037;BME280;10179;42.640;23.312;2023-01-25T12:08:22;94489.72;;;6.83;53.65
20037;BME280;10179;42.640;23.312;2023-01-25T12:11:08;94493.06;;;6.77;53.75
20037;BME280;10179;42.640;23.312;2023-01-25T12:13:49;94481.34;;;6.73;53.66
20037;BME280;10179;42.640;23.312;2023-01-25T12:29:55;94479.03;;;6.78;53.07
20037;BME280;10179;42.640;23.312;2023-01-25T12:32:27;94477.94;;;6.73;52.79
20037;BME280;10179;42.640;23.312;2023-01-25T12:37:45;94474.06;;;6.68;52.70
20037;BME280;10179;42.640;23.312;2023-01-25T12:40:45;94479.38;;;6.75;52.92
20037;BME280;10179;42.640;23.312;2023-01-25T12:43:25;94465.69;;;6.73;52.90
20037;BME280;10179;42.640;23.312;2023-01-25T12:45:52;94459.06;;;6.71;52.92
20037;BME280;10179;42.640;23.312;2023-01-25T12:48:35;94406.94;;;6.33;52.87
20037;BME280;10179;42.640;23.312;2023-01-25T12:51:02;94480.09;;;6.69;52.42
20037;BME280;10179;42.640;23.312;2023-01-25T12:53:47;94387.25;;;6.30;52.43
20037;BME280;10179;42.640;23.312;2023-01-25T12:59:05;94445.19;;;6.55;52.84
20037;BME280;10179;42.640;23.312;2023-01-25T13:01:47;94457.78;;;6.66;52.73
20037;BME280;10179;42.640;23.312;2023-01-25T13:04:31;94451.13;;;6.64;52.58
20037;BME280;10179;42.640;23.312;2023-01-25T13:12:54;94456.97;;;6.66;52.74
20037;BME280;10179;42.640;23.312;2023-01-25T13:17:59;94329.81;;;5.86;52.77
20037;BME280;10179;42.640;23.312;2023-01-25T13:23:37;94437.88;;;6.65;52.86
20037;BME280;10179;42.640;23.312;2023-01-25T13:28:49;94437.81;;;6.59;52.66
20037;BME280;10179;42.640;23.312;2023-01-25T13:36:59;94436.19;;;6.58;52.49
20037;BME280;10179;42.640;23.312;2023-01-25T13:42:02;94424.13;;;6.57;52.64
20037;BME280;10179;42.640;23.312;2023-01-25T13:44:30;94440.06;;;6.62;52.67
20037;BME280;10179;42.640;23.312;2023-01-25T13:46:59;94451.13;;;6.64;52.65
20037;BME280;10179;42.640;23.312;2023-01-25T13:49:33;94446.38;;;6.67;52.56
20037;BME280;10179;42.640;23.312;2023-01-25T13:52:02;94396.97;;;6.36;52.77
20037;BME280;10179;42.640;23.312;2023-01-25T13:54:29;94451.13;;;6.64;52.62
20037;BME280;10179;42.640;23.312;2023-01-25T13:57:05;94448.78;;;6.69;52.33
20037;BME280;10179;42.640;23.312;2023-01-25T13:59:33;94315.09;;;5.78;52.17
20037;BME280;10179;42.640;23.312;2023-01-25T14:01:59;94446.28;;;6.61;52.25
20037;BME280;10179;42.640;23.312;2023-01-25T14:04:27;94359.81;;;6.05;52.35
20037;BME280;10179;42.640;23.312;2023-01-25T14:06:59;94429.34;;;6.57;52.50
20037;BME280;10179;42.640;23.312;2023-01-25T14:09:27;94318.59;;;5.85;52.59
20037;BME280;10179;42.640;23.312;2023-01-25T14:11:59;94380.41;;;6.29;52.34
20037;BME280;10179;42.640;23.312;2023-01-25T14:14:30;94355.56;;;6.04;52.59
20037;BME280;10179;42.640;23.312;2023-01-25T14:17:18;94442.75;;;6.68;52.52
20037;BME280;10179;42.640;23.312;2023-01-25T14:19:49;94366.63;;;6.20;52.47
20037;BME280;10179;42.640;23.312;2023-01-25T14:22:32;94463.19;;;6.65;52.84
20037;BME280;10179;42.640;23.312;2023-01-25T14:25:18;94377.25;;;6.19;52.53
20037;BME280;10179;42.640;23.312;2023-01-25T14:27:49;94226.09;;;5.22;52.29
20037;BME280;10179;42.640;23.312;2023-01-25T14:30:19;94427.09;;;6.54;52.74
20037;BME280;10179;42.640;23.312;2023-01-25T14:32:46;94385.53;;;6.22;52.56
20037;BME280;10179;42.640;23.312;2023-01-25T14:37:52;94418.38;;;6.47;52.80
20037;BME280;10179;42.640;23.312;2023-01-25T14:40:21;94304.19;;;5.45;52.84
20037;BME280;10179;42.640;23.312;2023-01-25T14:42:48;94422.34;;;6.42;52.80
20037;BME280;10179;42.640;23.312;2023-01-25T14:45:14;94420.09;;;6.39;53.09
20037;BME280;10179;42.640;23.312;2023-01-25T14:47:40;94401.28;;;6.29;52.73
20037;BME280;10179;42.640;23.312;2023-01-25T14:50:31;94421.16;;;6.45;52.38
20037;BME280;10179;42.640;23.312;2023-01-25T14:52:58;94146.81;;;4.57;52.62
20037;BME280;10179;42.640;23.312;2023-01-25T14:55:25;94428.53;;;6.27;52.62